createdAt,value
2022-12-28T00:03:59.354Z,3.20
2022-12-28T00:09:03.805Z,3.10
2022-12-28T00:14:06.829Z,3.40
2022-12-28T00:19:13.691Z,3.40
2022-12-28T00:24:22.094Z,3.50
2022-12-28T00:29:25.195Z,3.40
2022-12-28T00:34:27.872Z,3.40
2022-12-28T00:39:31.939Z,3.30
2022-12-28T00:44:34.628Z,3.20
2022-12-28T00:49:37.292Z,3.10
2022-12-28T00:54:41.289Z,3.10
2022-12-28T00:59:43.920Z,3.10
2022-12-28T01:04:46.571Z,3.10
2022-12-28T01:09:50.576Z,3.10
2022-12-28T01:14:53.272Z,2.90
2022-12-28T01:19:55.930Z,2.60
2022-12-28T01:25:00.270Z,2.50
2022-12-28T01:30:02.949Z,2.60
2022-12-28T01:35:06.608Z,2.50
2022-12-28T01:40:15.719Z,2.40
2022-12-28T01:45:20.592Z,2.50
2022-12-28T01:50:28.017Z,2.50
2022-12-28T01:55:35.036Z,2.50
2022-12-28T02:00:38.009Z,2.40
2022-12-28T02:05:44.383Z,2.50
2022-12-28T02:10:48.813Z,2.60
2022-12-28T02:15:51.610Z,2.60
2022-12-28T02:21:16.671Z,2.50
2022-12-28T02:26:58.782Z,2.50
2022-12-28T02:32:12.082Z,2.60
2022-12-28T02:37:20.670Z,2.50
2022-12-28T02:42:25.569Z,2.60
2022-12-28T02:47:47.310Z,2.60
2022-12-28T02:53:06.571Z,2.70
2022-12-28T02:58:29.991Z,2.80
2022-12-28T03:03:42.022Z,3.00
2022-12-28T03:08:52.884Z,3.00
2022-12-28T03:13:59.910Z,2.90
2022-12-28T03:19:26.845Z,3.10
2022-12-28T03:24:49.350Z,3.10
2022-12-28T03:30:17.701Z,3.10
2022-12-28T03:35:28.523Z,3.20
2022-12-28T03:40:39.234Z,3.30
2022-12-28T03:45:49.906Z,3.30
2022-12-28T03:50:55.091Z,3.30
2022-12-28T03:56:07.598Z,3.30
2022-12-28T04:01:10.821Z,3.30
2022-12-28T04:06:16.509Z,3.30
2022-12-28T04:11:19.152Z,3.30
2022-12-28T04:16:21.859Z,3.30
2022-12-28T04:21:25.837Z,3.20
2022-12-28T04:26:28.508Z,3.30
2022-12-28T04:31:31.642Z,3.30
2022-12-28T04:36:35.714Z,3.40
2022-12-28T04:41:38.418Z,3.50
2022-12-28T04:46:41.527Z,3.50
2022-12-28T04:51:45.502Z,3.60
2022-12-28T04:56:48.143Z,3.70
2022-12-28T05:01:50.898Z,3.80
2022-12-28T05:06:54.911Z,3.90
2022-12-28T05:11:57.553Z,4.00
2022-12-28T05:17:00.182Z,4.00
2022-12-28T05:22:04.234Z,4.10
2022-12-28T05:27:06.897Z,4.10
2022-12-28T05:32:09.653Z,4.20
2022-12-28T05:37:20.137Z,4.20
2022-12-28T05:42:24.621Z,4.20
2022-12-28T05:47:27.305Z,4.20
2022-12-28T05:52:32.597Z,4.20
2022-12-28T05:57:35.316Z,4.10
2022-12-28T06:02:38.101Z,4.10
2022-12-28T06:07:42.169Z,4.20
2022-12-28T06:12:44.844Z,4.10
2022-12-28T06:17:47.568Z,4.20
2022-12-28T06:22:51.548Z,4.30
2022-12-28T06:27:54.720Z,4.30
2022-12-28T06:32:57.380Z,4.30
2022-12-28T06:38:01.677Z,4.30
2022-12-28T06:43:04.323Z,4.50
2022-12-28T06:48:07.225Z,4.60
2022-12-28T06:53:11.188Z,4.60
2022-12-28T06:58:13.830Z,4.70
2022-12-28T07:03:16.746Z,4.80
2022-12-28T07:08:20.764Z,4.90
2022-12-28T07:13:28.121Z,4.90
2022-12-28T07:18:31.265Z,5.00
2022-12-28T07:23:36.296Z,5.10
2022-12-28T07:28:39.782Z,5.10
2022-12-28T07:33:43.192Z,5.20
2022-12-28T07:38:47.332Z,5.30
2022-12-28T07:43:50.304Z,5.30
2022-12-28T07:48:53.688Z,5.40
2022-12-28T07:53:59.247Z,5.40
2022-12-28T07:59:03.893Z,5.50
2022-12-28T08:04:09.170Z,5.60
2022-12-28T08:09:14.594Z,5.80
2022-12-28T08:14:17.255Z,5.90
2022-12-28T08:19:19.906Z,6.00
2022-12-28T08:24:24.096Z,6.20
2022-12-28T08:29:26.837Z,6.30
2022-12-28T08:34:29.545Z,6.40
2022-12-28T08:39:33.546Z,6.40
2022-12-28T08:44:36.279Z,6.50
2022-12-28T08:49:38.985Z,6.50
2022-12-28T08:54:42.989Z,6.60
2022-12-28T08:59:45.646Z,6.90
2022-12-28T09:04:48.275Z,7.00
2022-12-28T09:09:52.274Z,7.40
2022-12-28T09:14:54.982Z,8.00
2022-12-28T09:19:57.611Z,8.20
2022-12-28T09:25:01.848Z,7.80
2022-12-28T09:30:05.732Z,7.70
2022-12-28T09:35:08.999Z,7.90
2022-12-28T09:40:13.452Z,7.90
2022-12-28T09:45:17.226Z,7.90
2022-12-28T09:50:30.176Z,7.90
2022-12-28T09:55:35.499Z,7.70
2022-12-28T10:00:40.485Z,7.60
2022-12-28T10:05:43.754Z,7.60
2022-12-28T10:10:49.301Z,7.70
2022-12-28T10:15:53.599Z,7.60
2022-12-28T10:20:57.081Z,7.70
2022-12-28T10:26:02.861Z,7.70
2022-12-28T10:31:08.680Z,7.80
2022-12-28T10:36:14.559Z,8.00
2022-12-28T10:41:20.759Z,8.30
2022-12-28T10:46:25.019Z,8.50
2022-12-28T10:51:30.762Z,8.70
2022-12-28T10:56:48.768Z,8.80
2022-12-28T11:01:51.562Z,8.90
2022-12-28T11:06:56.388Z,9.20
2022-12-28T11:12:18.776Z,9.40
2022-12-28T11:17:24.535Z,9.40
2022-12-28T11:22:30.068Z,9.60
2022-12-28T11:27:36.719Z,9.50
2022-12-28T11:32:44.477Z,9.50
2022-12-28T11:37:51.859Z,9.50
2022-12-28T11:42:57.453Z,9.50
2022-12-28T11:48:33.704Z,9.30
2022-12-28T11:53:54.681Z,9.20
2022-12-28T11:59:27.242Z,9.00
2022-12-28T12:04:46.071Z,9.00
2022-12-28T12:09:50.436Z,8.80
2022-12-28T12:14:58.494Z,8.50
2022-12-28T12:20:06.845Z,8.60
2022-12-28T12:25:19.229Z,8.50
2022-12-28T12:30:24.254Z,8.50
2022-12-28T12:35:29.409Z,8.40
2022-12-28T12:40:53.435Z,8.30
2022-12-28T12:46:18.495Z,8.30
2022-12-28T12:51:29.587Z,8.20
2022-12-28T12:56:44.098Z,8.10
2022-12-28T13:01:56.478Z,8.20
2022-12-28T13:07:02.465Z,8.30
2022-12-28T13:12:13.080Z,8.30
2022-12-28T13:17:20.494Z,8.30
2022-12-28T13:22:28.738Z,8.40
2022-12-28T13:27:35.479Z,8.40
2022-12-28T13:32:51.386Z,8.40
2022-12-28T13:38:04.747Z,8.50
2022-12-28T13:43:29.532Z,8.70
2022-12-28T13:48:33.679Z,8.70
2022-12-28T13:53:37.299Z,8.60
2022-12-28T13:58:47.991Z,8.60
2022-12-28T14:04:08.773Z,8.70
2022-12-28T14:09:22.443Z,9.10
2022-12-28T14:14:25.372Z,9.30
2022-12-28T14:19:29.830Z,9.40
2022-12-28T14:24:32.498Z,9.60
2022-12-28T14:29:35.933Z,9.70
2022-12-28T14:34:40.073Z,9.80
2022-12-28T14:39:46.149Z,9.80
2022-12-28T14:44:54.272Z,9.80
2022-12-28T14:50:01.062Z,9.50
2022-12-28T14:55:33.415Z,9.00
2022-12-28T15:00:37.798Z,8.80
2022-12-28T15:05:47.411Z,8.50
2022-12-28T15:10:51.689Z,8.50
2022-12-28T15:15:55.747Z,8.50
2022-12-28T15:21:04.315Z,8.40
2022-12-28T15:26:08.810Z,8.40
2022-12-28T15:31:14.218Z,8.40
2022-12-28T15:36:20.439Z,8.30
2022-12-28T15:41:41.273Z,8.30
2022-12-28T15:46:44.584Z,8.40
2022-12-28T15:51:48.738Z,8.40
2022-12-28T15:56:53.695Z,8.40
2022-12-28T16:01:57.290Z,8.40
2022-12-28T16:07:01.338Z,8.30
2022-12-28T16:12:04.095Z,8.30
2022-12-28T16:17:06.748Z,8.20
2022-12-28T16:22:10.821Z,8.20
2022-12-28T16:27:13.582Z,8.10
2022-12-28T16:32:16.680Z,8.10
2022-12-28T16:37:20.746Z,8.10
2022-12-28T16:42:23.429Z,8.00
2022-12-28T16:47:28.727Z,8.10
2022-12-28T16:52:32.705Z,8.00
2022-12-28T16:57:35.417Z,8.00
2022-12-28T17:02:38.335Z,8.00
2022-12-28T17:07:42.453Z,8.00
2022-12-28T17:12:45.181Z,8.00
2022-12-28T17:17:47.990Z,8.00
2022-12-28T17:22:52.053Z,8.10
2022-12-28T17:27:55.022Z,8.10
2022-12-28T17:32:57.849Z,8.10
2022-12-28T17:38:01.947Z,8.10
2022-12-28T17:43:04.597Z,8.10
2022-12-28T17:48:07.524Z,8.20
2022-12-28T17:53:11.599Z,8.20
2022-12-28T17:58:14.403Z,8.20
2022-12-28T18:03:17.134Z,8.20
2022-12-28T18:08:22.516Z,8.20
2022-12-28T18:13:25.740Z,8.20
2022-12-28T18:18:28.546Z,8.30
2022-12-28T18:23:33.291Z,8.30
2022-12-28T18:28:37.095Z,8.20
2022-12-28T18:33:39.801Z,8.20
2022-12-28T18:38:44.953Z,8.30
2022-12-28T18:43:47.844Z,8.20
2022-12-28T18:48:50.598Z,8.30
2022-12-28T18:53:54.667Z,8.30
2022-12-28T18:58:58.771Z,8.30
2022-12-28T19:04:01.852Z,8.30
2022-12-28T19:09:07.522Z,8.40
2022-12-28T19:14:13.497Z,8.40
2022-12-28T19:19:17.250Z,8.50
2022-12-28T19:24:22.484Z,8.50
2022-12-28T19:29:25.282Z,8.50
2022-12-28T19:34:28.173Z,8.50
2022-12-28T19:39:32.203Z,8.50
2022-12-28T19:44:34.869Z,8.50
2022-12-28T19:49:37.607Z,8.50
2022-12-28T19:54:41.781Z,8.50
2022-12-28T19:59:44.496Z,8.50
2022-12-28T20:04:47.164Z,8.50
2022-12-28T20:10:32.505Z,8.40
2022-12-28T20:15:54.217Z,8.40
2022-12-28T20:22:08.397Z,8.30
2022-12-28T20:28:04.872Z,8.30
2022-12-28T20:33:26.251Z,8.40
2022-12-28T20:38:45.451Z,8.40
2022-12-28T20:43:54.043Z,8.40
2022-12-28T20:49:06.113Z,8.40
2022-12-28T20:54:10.778Z,8.50
2022-12-28T20:59:14.830Z,8.50
2022-12-28T21:04:18.851Z,8.40
2022-12-28T21:09:22.036Z,8.40
2022-12-28T21:14:24.772Z,8.30
2022-12-28T21:19:28.864Z,8.30
2022-12-28T21:24:31.631Z,8.30
2022-12-28T21:29:34.337Z,8.20
2022-12-28T21:34:38.350Z,8.20
2022-12-28T21:39:43.416Z,8.30
2022-12-28T21:44:46.192Z,8.20
2022-12-28T21:49:50.256Z,8.20
2022-12-28T21:54:53.157Z,8.20
2022-12-28T21:59:55.821Z,8.20
2022-12-28T22:05:17.600Z,8.10
2022-12-28T22:10:38.153Z,8.10
2022-12-28T22:15:53.211Z,8.10
2022-12-28T22:20:57.183Z,8.20
2022-12-28T22:25:59.831Z,8.20
2022-12-28T22:31:05.139Z,8.30
2022-12-28T22:36:14.702Z,8.40
2022-12-28T22:41:17.441Z,8.50
2022-12-28T22:46:21.234Z,8.60
2022-12-28T22:51:25.312Z,8.70
2022-12-28T22:56:28.075Z,8.70
2022-12-28T23:01:30.816Z,8.80
2022-12-28T23:06:34.933Z,8.70
2022-12-28T23:11:38.118Z,8.80
2022-12-28T23:16:40.810Z,8.70
2022-12-28T23:22:02.254Z,8.70
2022-12-28T23:27:23.169Z,8.70
2022-12-28T23:32:26.050Z,8.60
2022-12-28T23:37:30.205Z,8.60
2022-12-28T23:42:32.934Z,8.50
2022-12-28T23:47:36.120Z,8.50
2022-12-28T23:52:43.074Z,8.50
2022-12-28T23:57:45.765Z,8.40
